Summerville, SC

2:22 PM EDT on August 29, 2014 (GMT -0400)
Greenhurst | Change Station
CLOSE
Current Station
Personal Weather Station
Location: Summerville, SC
Elevation: 43 ft
Nearby Weather Stations

Elev 43 ft 32.99 °N, 80.17 °W | Updated 40 days ago

Partly Cloudy
Partly Cloudy
91 °F
Feels Like 93 °F
N
6
Wind Variable Wind from NW
Gusts 8 mph

Today
High -- | Low -- °F
--% Chance of Precip.
Yesterday
High -- | Low -- °F
Precip. -- in
6:53 AM 7:49 PM
Waxing Crescent, 15% visible
Pressure 30.08 in
Visibility 10.0 miles
Clouds Clear
Heat Index 93 °F
Dew Point 67 °F
Humidity 45%
Rainfall 0.00 in
Snow Depth Not available.
UV 10 out of 12
Pollen 8.20 out of 12
Ozone Good
PM2.5 Good
Flu Activity Not available.
METAR KDYB 291815Z AUTO 00000KT 10SM CLR 33/21 A3008 RMK AO1

More Conditions Fewer Conditions

Pressure 30.08 in
Visibility 10.0 miles
Clouds Clear
Heat Index 93 °F
Dew Point 67 °F
Humidity 45%
Rainfall 0.00 in
Snow Depth Not available.
UV 10 out of 12
Pollen 8.20 out of 12
Ozone Good
PM2.5 Good
Flu Activity Not available.
METAR KDYB 291815Z AUTO 00000KT 10SM CLR 33/21 A3008 RMK AO1

More Conditions Fewer Conditions

10-Day Weather Forecast

Almanac

Astronomy

Aug. 29, 2014 Rise Set
Actual Time 6:53 AM EDT 7:49 PM EDT
Civil Twilight 6:27 AM EDT 8:14 PM EDT
Nautical Twilight 5:57 AM EDT 8:44 PM EDT
Astronomical Twilight 5:26 AM EDT 9:15 PM EDT
Moon 10:27 AM EDT 10:01 PM EDT
Length of Visible Light 13h 46m
Length of Day
12h 56m
Tomorrow will be 1m 55s shorter.
Waxing Crescent, 15% of the Moon is Illuminated
Today
Waxing Crescent
Sep 2
First Quarter
Sep 8
Full
Sep 15
Last Quarter
Sep 24
New

Today's Extremes

State Highs State Lows

Community

WunderPhotos

Upload Photos

1,748,310 photos uploaded!

Nearby

Air Quality

  Air Quality AQ Index Pollutant
Yesterday Good
OZONE
Yesterday Good
PM2.5
Current Good
PM2.5
Current Good
OZONE
Friday Good
OZONE

Snow Depth

Station Depth Elevation
No new snow has been reported.

Earthquake Activity

City Distance Mag. Time & Date
No recent earthquake activity has been reported nearby.
Minimum magnitude displayed is 2.5.

Coastal Water Temperatures

Place Temperature
No Stations Reporting

Nearby Weather Stations